createdAt,value
2018-12-30T00:00:59.594Z,7.85
2018-12-30T00:03:28.020Z,7.91
2018-12-30T00:05:56.565Z,7.88
2018-12-30T00:08:25.182Z,7.91
2018-12-30T00:10:55.240Z,7.95
2018-12-30T00:13:25.343Z,7.94
2018-12-30T00:15:53.726Z,7.94
2018-12-30T00:18:22.104Z,7.93
2018-12-30T00:20:50.464Z,7.93
2018-12-30T00:23:19.017Z,7.92
2018-12-30T00:25:47.362Z,7.90
2018-12-30T00:28:15.735Z,7.91
2018-12-30T00:30:44.122Z,7.78
2018-12-30T00:33:12.505Z,7.73
2018-12-30T00:35:40.897Z,7.76
2018-12-30T00:38:09.307Z,7.73
2018-12-30T00:40:37.660Z,7.70
2018-12-30T00:43:06.027Z,7.68
2018-12-30T00:45:34.396Z,7.47
2018-12-30T00:48:02.765Z,7.44
2018-12-30T00:50:31.150Z,7.31
2018-12-30T00:52:59.511Z,7.33
2018-12-30T00:55:27.891Z,7.28
2018-12-30T00:57:56.395Z,7.26
2018-12-30T01:00:24.767Z,7.18
2018-12-30T01:02:53.144Z,7.05
2018-12-30T01:05:21.755Z,7.06
2018-12-30T01:07:50.122Z,7.10
2018-12-30T01:10:18.489Z,6.96
2018-12-30T01:12:46.856Z,6.99
2018-12-30T01:15:15.225Z,6.90
2018-12-30T01:17:43.668Z,6.90
2018-12-30T01:20:13.769Z,6.96
2018-12-30T01:22:42.133Z,6.92
2018-12-30T01:25:10.492Z,6.96
2018-12-30T01:27:38.858Z,6.93
2018-12-30T01:30:40.665Z,6.87
2018-12-30T01:33:09.052Z,6.83
2018-12-30T01:35:37.441Z,6.77
2018-12-30T01:38:05.814Z,6.73
2018-12-30T01:40:34.178Z,6.70
2018-12-30T01:43:02.547Z,6.66
2018-12-30T01:45:30.908Z,6.62
2018-12-30T01:47:59.300Z,6.63
2018-12-30T01:50:27.679Z,6.61
2018-12-30T01:52:56.059Z,6.58
2018-12-30T01:55:24.619Z,6.58
2018-12-30T01:57:52.985Z,6.49
2018-12-30T02:00:21.403Z,6.43
2018-12-30T02:02:49.803Z,6.46
2018-12-30T02:05:18.167Z,6.45
2018-12-30T02:07:46.548Z,6.37
2018-12-30T02:10:14.932Z,6.32
2018-12-30T02:12:43.299Z,6.24
2018-12-30T02:15:11.676Z,6.26
2018-12-30T02:17:40.053Z,6.20
2018-12-30T02:20:08.463Z,6.21
2018-12-30T02:22:36.842Z,6.12
2018-12-30T02:25:05.275Z,6.12
2018-12-30T02:27:33.650Z,6.09
2018-12-30T02:30:02.006Z,6.08
2018-12-30T02:32:30.383Z,6.11
2018-12-30T02:34:58.937Z,6.01
2018-12-30T02:37:27.323Z,6.03
2018-12-30T02:39:55.677Z,5.99
2018-12-30T02:42:24.046Z,5.98
2018-12-30T02:44:52.415Z,5.97
2018-12-30T02:47:22.505Z,5.98
2018-12-30T02:49:50.874Z,6.02
2018-12-30T02:52:19.222Z,6.01
2018-12-30T02:54:47.595Z,6.01
2018-12-30T02:57:15.959Z,6.01
2018-12-30T02:59:44.511Z,6.10
2018-12-30T03:02:12.876Z,6.05
2018-12-30T03:04:41.244Z,6.00
2018-12-30T03:07:09.611Z,6.02
2018-12-30T03:09:37.987Z,5.99
2018-12-30T03:12:08.085Z,5.93
2018-12-30T03:14:36.448Z,5.91
2018-12-30T03:17:04.810Z,5.85
2018-12-30T03:19:33.277Z,5.75
2018-12-30T03:22:01.649Z,5.74
2018-12-30T03:24:30.009Z,5.64
2018-12-30T03:26:58.362Z,5.58
2018-12-30T03:29:26.746Z,5.55
2018-12-30T03:31:55.135Z,5.55
2018-12-30T03:34:23.500Z,5.50
2018-12-30T03:36:51.863Z,5.48
2018-12-30T03:39:20.244Z,5.48
2018-12-30T03:42:28.646Z,5.51
2018-12-30T03:44:57.017Z,5.50
2018-12-30T03:47:25.381Z,5.59
2018-12-30T03:49:53.762Z,5.59
2018-12-30T03:52:22.131Z,5.54
2018-12-30T03:54:50.509Z,5.59
2018-12-30T03:57:18.878Z,5.61
2018-12-30T03:59:47.230Z,5.60
2018-12-30T04:02:15.604Z,5.65
2018-12-30T04:04:43.971Z,5.69
2018-12-30T04:07:12.356Z,5.66
2018-12-30T04:09:40.745Z,5.71
2018-12-30T04:12:09.142Z,5.71
2018-12-30T04:14:37.496Z,5.71
2018-12-30T04:17:25.236Z,5.83
2018-12-30T04:19:53.602Z,5.83
2018-12-30T04:22:21.967Z,5.85
2018-12-30T04:24:50.348Z,5.84
2018-12-30T04:27:18.726Z,5.89
2018-12-30T04:29:47.075Z,5.91
2018-12-30T04:32:15.449Z,5.93
2018-12-30T04:34:43.832Z,5.98
2018-12-30T04:37:12.212Z,6.06
2018-12-30T04:39:40.589Z,6.06
2018-12-30T04:42:08.963Z,6.06
2018-12-30T04:44:37.340Z,6.09
2018-12-30T04:47:05.725Z,6.14
2018-12-30T04:49:34.122Z,6.16
2018-12-30T04:52:02.492Z,6.19
2018-12-30T04:54:30.867Z,6.14
2018-12-30T04:56:59.235Z,6.18
2018-12-30T04:59:27.604Z,6.24
2018-12-30T05:01:55.976Z,6.20
2018-12-30T05:04:24.357Z,6.29
2018-12-30T05:06:52.741Z,6.22
2018-12-30T05:09:21.122Z,6.23
2018-12-30T05:11:49.483Z,6.24
2018-12-30T05:14:17.845Z,6.26
2018-12-30T05:16:46.236Z,6.28
2018-12-30T05:19:14.607Z,6.31
2018-12-30T05:21:42.980Z,6.35
2018-12-30T05:24:11.354Z,6.33
2018-12-30T05:26:39.741Z,6.34
2018-12-30T05:29:08.105Z,6.30
2018-12-30T05:31:36.473Z,6.37
2018-12-30T05:34:04.857Z,6.37
2018-12-30T05:36:33.237Z,6.36
2018-12-30T05:39:01.621Z,6.38
2018-12-30T05:41:29.974Z,6.38
2018-12-30T05:43:58.335Z,6.42
2018-12-30T05:46:26.774Z,6.41
2018-12-30T05:48:55.138Z,6.39
2018-12-30T05:51:23.504Z,6.38
2018-12-30T05:53:51.964Z,6.41
2018-12-30T05:56:20.297Z,6.40
2018-12-30T05:58:48.677Z,6.46
2018-12-30T06:01:17.062Z,6.53
2018-12-30T06:03:45.413Z,6.53
2018-12-30T06:06:13.796Z,6.50
2018-12-30T06:08:42.164Z,6.53
2018-12-30T06:11:10.548Z,6.52
2018-12-30T06:13:38.928Z,6.60
2018-12-30T06:16:07.288Z,6.53
2018-12-30T06:18:35.665Z,6.56
2018-12-30T06:21:04.048Z,6.59
2018-12-30T06:23:32.420Z,6.56
2018-12-30T06:26:00.799Z,6.64
2018-12-30T06:28:29.282Z,6.64
2018-12-30T06:30:57.638Z,6.70
2018-12-30T06:33:26.019Z,6.72
2018-12-30T06:35:54.386Z,6.80
2018-12-30T06:38:22.756Z,6.78
2018-12-30T06:40:51.119Z,6.81
2018-12-30T06:43:19.496Z,6.81
2018-12-30T06:45:47.861Z,6.89
2018-12-30T06:48:16.254Z,6.82
2018-12-30T06:50:44.634Z,6.83
2018-12-30T06:53:12.981Z,6.80
2018-12-30T06:55:41.380Z,6.79
2018-12-30T06:58:09.759Z,6.76
2018-12-30T07:00:38.115Z,6.82
2018-12-30T07:03:06.490Z,6.81
2018-12-30T07:05:35.684Z,6.91
2018-12-30T07:08:04.067Z,6.96
2018-12-30T07:10:32.439Z,6.86
2018-12-30T07:13:00.809Z,6.89
2018-12-30T07:15:29.174Z,6.84
2018-12-30T07:17:57.555Z,6.81
2018-12-30T07:20:25.941Z,6.81
2018-12-30T07:22:54.321Z,6.89
2018-12-30T07:25:22.701Z,6.86
2018-12-30T07:27:51.073Z,6.89
2018-12-30T07:30:19.476Z,6.97
2018-12-30T07:32:47.854Z,6.92
2018-12-30T07:35:16.241Z,6.92
2018-12-30T07:37:44.589Z,6.87
2018-12-30T07:40:12.969Z,6.95
2018-12-30T07:42:41.329Z,6.90
2018-12-30T07:45:09.693Z,6.87
2018-12-30T07:47:38.093Z,6.90
2018-12-30T07:50:46.721Z,6.88
2018-12-30T07:53:15.145Z,6.92
2018-12-30T07:55:43.527Z,6.83
2018-12-30T07:58:11.898Z,6.93
2018-12-30T08:00:40.273Z,6.91
2018-12-30T08:03:08.626Z,6.98
2018-12-30T08:05:37.034Z,6.91
2018-12-30T08:08:05.385Z,6.91
2018-12-30T08:10:33.772Z,6.91
2018-12-30T08:13:02.122Z,7.01
2018-12-30T08:15:30.490Z,6.93
2018-12-30T08:17:58.855Z,6.88
2018-12-30T08:20:27.216Z,6.88
2018-12-30T08:22:55.579Z,6.92
2018-12-30T08:25:24.718Z,6.93
2018-12-30T08:27:53.096Z,7.01
2018-12-30T08:30:21.446Z,7.02
2018-12-30T08:32:49.791Z,7.04
2018-12-30T08:35:18.160Z,7.01
2018-12-30T08:37:46.511Z,7.06
2018-12-30T08:40:14.884Z,7.10
2018-12-30T08:42:43.256Z,7.07
2018-12-30T08:45:11.615Z,7.02
2018-12-30T08:47:39.966Z,7.07
2018-12-30T08:50:08.339Z,7.06
2018-12-30T08:52:36.695Z,7.07
2018-12-30T08:55:05.057Z,7.11
2018-12-30T08:57:33.439Z,7.07
2018-12-30T09:00:02.311Z,7.06
2018-12-30T09:02:31.919Z,7.05
2018-12-30T09:05:00.307Z,7.12
2018-12-30T09:07:28.658Z,7.07
2018-12-30T09:09:57.017Z,7.05
2018-12-30T09:12:25.387Z,7.12
2018-12-30T09:14:53.761Z,7.08
2018-12-30T09:17:22.104Z,7.10
2018-12-30T09:19:50.477Z,7.12
2018-12-30T09:22:18.835Z,7.03
2018-12-30T09:24:47.203Z,7.08
2018-12-30T09:27:15.563Z,7.08
2018-12-30T09:29:43.954Z,7.04
2018-12-30T09:32:12.326Z,7.06
2018-12-30T09:34:40.700Z,7.06
2018-12-30T09:37:09.061Z,7.08
2018-12-30T09:39:37.438Z,7.10
2018-12-30T09:42:05.810Z,7.09
2018-12-30T09:44:34.171Z,7.12
2018-12-30T09:47:02.551Z,7.22
2018-12-30T09:49:30.915Z,7.27
2018-12-30T09:51:59.363Z,7.28
2018-12-30T09:54:27.760Z,7.23
2018-12-30T09:56:56.126Z,7.35
2018-12-30T09:59:24.487Z,7.34
2018-12-30T10:01:52.898Z,7.39
2018-12-30T10:04:21.257Z,7.47
2018-12-30T10:06:49.620Z,7.50
2018-12-30T10:09:17.981Z,7.40
2018-12-30T10:11:46.384Z,7.48
2018-12-30T10:14:15.758Z,7.51
2018-12-30T10:19:23.079Z,7.41
2018-12-30T10:21:51.447Z,7.53
2018-12-30T10:24:19.833Z,7.51
2018-12-30T10:26:48.196Z,7.53
2018-12-30T10:29:16.579Z,7.55
2018-12-30T10:31:44.961Z,7.61
2018-12-30T10:34:13.323Z,7.58
2018-12-30T10:36:41.684Z,7.59
2018-12-30T10:39:10.059Z,7.62
2018-12-30T10:41:38.427Z,7.57
2018-12-30T10:44:06.809Z,7.70
2018-12-30T10:46:35.202Z,7.69
2018-12-30T10:49:03.605Z,7.74
2018-12-30T10:51:31.980Z,7.81
2018-12-30T10:54:00.777Z,7.82
2018-12-30T10:56:30.411Z,7.77
2018-12-30T10:58:58.773Z,7.72
2018-12-30T11:01:27.139Z,7.75
2018-12-30T11:03:55.510Z,7.73
2018-12-30T11:06:23.884Z,7.80
2018-12-30T11:08:52.256Z,7.83
2018-12-30T11:11:20.696Z,7.86
2018-12-30T11:13:49.102Z,7.95
2018-12-30T11:16:17.466Z,8.01
2018-12-30T11:18:45.861Z,7.97
2018-12-30T11:21:14.234Z,8.00
2018-12-30T11:23:43.449Z,7.91
2018-12-30T11:26:11.797Z,7.91
2018-12-30T11:28:40.197Z,7.89
2018-12-30T11:31:08.553Z,7.96
2018-12-30T11:33:36.953Z,7.95
2018-12-30T11:36:05.327Z,7.94
2018-12-30T11:39:14.286Z,7.99
2018-12-30T11:41:42.713Z,8.00
2018-12-30T11:44:11.078Z,8.12
2018-12-30T11:46:39.464Z,8.27
2018-12-30T11:49:07.825Z,8.23
2018-12-30T11:51:36.193Z,8.16
2018-12-30T11:54:04.556Z,8.21
2018-12-30T11:56:32.939Z,8.20
2018-12-30T11:59:01.398Z,8.19
2018-12-30T12:01:29.741Z,8.32
2018-12-30T12:03:58.124Z,8.40
2018-12-30T12:06:26.515Z,8.42
2018-12-30T12:08:54.888Z,8.29
2018-12-30T12:11:23.260Z,8.21
2018-12-30T12:13:51.654Z,8.15
2018-12-30T12:16:20.064Z,8.09
2018-12-30T12:18:48.689Z,8.19
2018-12-30T12:21:17.045Z,8.13
2018-12-30T12:23:45.431Z,7.99
2018-12-30T12:26:13.782Z,7.99
2018-12-30T12:28:42.141Z,8.02
2018-12-30T12:31:10.495Z,8.03
2018-12-30T12:33:39.296Z,8.04
2018-12-30T12:36:07.734Z,8.05
2018-12-30T12:38:36.085Z,8.11
2018-12-30T12:41:16.969Z,8.03
2018-12-30T12:44:04.498Z,8.01
2018-12-30T12:46:32.904Z,7.95
2018-12-30T12:49:01.255Z,7.96
2018-12-30T12:51:29.632Z,8.01
2018-12-30T12:53:58.057Z,7.98
2018-12-30T12:56:26.398Z,8.06
2018-12-30T12:58:54.771Z,8.11
2018-12-30T13:01:23.143Z,7.99
2018-12-30T13:03:51.533Z,8.01
2018-12-30T13:06:19.918Z,7.97
2018-12-30T13:08:48.311Z,7.94
2018-12-30T13:11:16.665Z,7.85
2018-12-30T13:13:45.051Z,7.85
2018-12-30T13:16:13.483Z,7.88
2018-12-30T13:18:41.848Z,7.91
2018-12-30T13:21:10.228Z,7.89
2018-12-30T13:23:39.323Z,7.86
2018-12-30T13:26:07.693Z,7.95
2018-12-30T13:28:36.076Z,7.95
2018-12-30T13:31:04.514Z,7.91
2018-12-30T13:33:32.857Z,7.85
2018-12-30T13:36:01.213Z,7.83
2018-12-30T13:38:29.599Z,7.85
2018-12-30T13:40:57.961Z,7.79
2018-12-30T13:43:26.324Z,7.78
2018-12-30T13:45:54.687Z,7.82
2018-12-30T13:48:23.063Z,7.76
2018-12-30T13:50:51.427Z,7.85
2018-12-30T13:53:19.818Z,7.72
2018-12-30T13:55:48.829Z,7.73
2018-12-30T13:58:18.275Z,7.86
2018-12-30T14:00:46.634Z,7.79
2018-12-30T14:03:15.006Z,7.83
2018-12-30T14:05:43.365Z,7.83
2018-12-30T14:08:11.724Z,7.77
2018-12-30T14:10:52.296Z,7.74
2018-12-30T14:13:20.670Z,7.68
2018-12-30T14:15:51.012Z,7.66
2018-12-30T14:18:19.129Z,7.73
2018-12-30T14:20:47.498Z,7.68
2018-12-30T14:23:15.887Z,7.71
2018-12-30T14:25:44.265Z,7.60
2018-12-30T14:28:12.623Z,7.61
2018-12-30T14:30:41.008Z,7.64
2018-12-30T14:33:09.378Z,7.63
2018-12-30T14:35:37.743Z,7.56
2018-12-30T14:38:06.133Z,7.61
2018-12-30T14:40:34.497Z,7.56
2018-12-30T14:43:02.862Z,7.46
2018-12-30T14:45:31.220Z,7.48
2018-12-30T14:47:59.604Z,7.48
2018-12-30T14:50:27.965Z,7.48
2018-12-30T14:52:56.313Z,7.39
2018-12-30T14:55:24.676Z,7.33
2018-12-30T14:57:53.044Z,7.27
2018-12-30T15:00:21.396Z,7.54
2018-12-30T15:02:49.765Z,7.20
2018-12-30T15:05:18.122Z,7.12
2018-12-30T15:07:46.505Z,7.15
2018-12-30T15:10:14.877Z,7.04
2018-12-30T15:12:43.247Z,7.04
2018-12-30T15:15:11.630Z,7.01
2018-12-30T15:17:40.007Z,6.94
2018-12-30T15:20:08.505Z,6.94
2018-12-30T15:22:36.876Z,6.86
2018-12-30T15:25:45.276Z,6.82
2018-12-30T15:28:13.653Z,6.80
2018-12-30T15:30:42.046Z,6.77
2018-12-30T15:33:10.410Z,6.80
2018-12-30T15:35:38.804Z,6.70
2018-12-30T15:38:07.181Z,6.72
2018-12-30T15:40:35.553Z,6.72
2018-12-30T15:43:03.922Z,6.70
2018-12-30T15:45:32.285Z,6.68
2018-12-30T15:48:00.661Z,6.63
2018-12-30T15:50:29.104Z,6.63
2018-12-30T15:52:57.484Z,6.63
2018-12-30T15:55:25.851Z,6.64
2018-12-30T15:57:54.234Z,6.55
2018-12-30T16:00:22.599Z,6.58
2018-12-30T16:02:50.967Z,6.55
2018-12-30T16:05:19.340Z,6.59
2018-12-30T16:07:47.711Z,6.51
2018-12-30T16:10:16.131Z,6.44
2018-12-30T16:12:44.469Z,6.44
2018-12-30T16:15:12.879Z,6.45
2018-12-30T16:17:41.257Z,6.41
2018-12-30T16:20:09.631Z,6.45
2018-12-30T16:22:38.034Z,6.31
2018-12-30T16:25:06.499Z,6.24
2018-12-30T16:27:34.851Z,6.18
2018-12-30T16:30:03.280Z,6.30
2018-12-30T16:32:31.656Z,6.30
2018-12-30T16:35:00.042Z,6.34
2018-12-30T16:37:28.403Z,6.34
2018-12-30T16:39:56.771Z,6.22
2018-12-30T16:42:25.142Z,6.18
2018-12-30T16:44:53.498Z,6.19
2018-12-30T16:47:21.862Z,6.23
2018-12-30T16:49:50.247Z,6.14
2018-12-30T16:52:18.618Z,6.12
2018-12-30T16:54:46.989Z,6.13
2018-12-30T16:57:15.361Z,6.20
2018-12-30T16:59:44.740Z,6.13
2018-12-30T17:04:52.918Z,6.08
2018-12-30T17:07:21.336Z,6.15
2018-12-30T17:09:49.684Z,6.06
2018-12-30T17:12:18.056Z,6.08
2018-12-30T17:14:46.430Z,6.04
2018-12-30T17:17:14.810Z,6.02
2018-12-30T17:19:43.169Z,5.96
2018-12-30T17:22:11.527Z,5.97
2018-12-30T17:24:39.890Z,6.06
2018-12-30T17:27:08.264Z,6.00
2018-12-30T17:29:36.616Z,6.07
2018-12-30T17:32:05.022Z,5.90
2018-12-30T17:34:33.356Z,5.84
2018-12-30T17:37:01.705Z,5.87
2018-12-30T17:39:30.085Z,5.81
2018-12-30T17:41:58.459Z,5.80
2018-12-30T17:44:26.855Z,5.79
2018-12-30T17:46:55.228Z,5.79
2018-12-30T17:49:23.593Z,5.84
2018-12-30T17:51:51.974Z,5.83
2018-12-30T17:54:20.363Z,5.76
2018-12-30T17:56:48.735Z,5.70
2018-12-30T17:59:17.099Z,5.71
2018-12-30T18:01:45.471Z,5.72
2018-12-30T18:04:13.832Z,5.69
2018-12-30T18:06:42.200Z,5.64
2018-12-30T18:09:10.570Z,5.62
2018-12-30T18:11:38.950Z,5.61
2018-12-30T18:14:07.322Z,5.53
2018-12-30T18:16:35.685Z,5.51
2018-12-30T18:19:04.115Z,5.49
2018-12-30T18:21:32.447Z,5.48
2018-12-30T18:24:00.832Z,5.45
2018-12-30T18:26:29.200Z,5.40
2018-12-30T18:28:57.578Z,5.38
2018-12-30T18:31:26.001Z,5.41
2018-12-30T18:33:54.368Z,5.47
2018-12-30T18:36:22.796Z,5.49
2018-12-30T18:38:51.208Z,5.49
2018-12-30T18:41:19.594Z,5.48
2018-12-30T18:43:47.981Z,5.47
2018-12-30T18:46:16.354Z,5.51
2018-12-30T18:48:44.767Z,5.57
2018-12-30T18:51:13.146Z,5.53
2018-12-30T18:53:42.345Z,5.53
2018-12-30T18:56:10.709Z,5.57
2018-12-30T18:58:39.067Z,5.60
2018-12-30T19:01:26.794Z,5.66
2018-12-30T19:04:29.548Z,5.67
2018-12-30T19:06:57.917Z,5.63
2018-12-30T19:09:26.289Z,5.66
2018-12-30T19:11:54.674Z,5.66
2018-12-30T19:14:23.014Z,5.68
2018-12-30T19:16:51.389Z,5.70
2018-12-30T19:19:19.747Z,5.63
2018-12-30T19:21:48.134Z,5.59
2018-12-30T19:24:16.522Z,5.61
2018-12-30T19:26:44.916Z,5.54
2018-12-30T19:29:13.280Z,5.59
2018-12-30T19:31:41.649Z,5.57
2018-12-30T19:34:10.053Z,5.58
2018-12-30T19:36:38.423Z,5.57
2018-12-30T19:39:46.825Z,5.66
2018-12-30T19:42:15.167Z,5.70
2018-12-30T19:44:43.548Z,5.71
2018-12-30T19:47:11.933Z,5.78
2018-12-30T19:49:40.314Z,5.81
2018-12-30T19:52:08.681Z,5.80
2018-12-30T19:54:37.071Z,5.81
2018-12-30T19:57:05.448Z,5.84
2018-12-30T19:59:33.819Z,5.85
2018-12-30T20:02:02.186Z,5.77
2018-12-30T20:04:30.545Z,5.76
2018-12-30T20:06:58.923Z,5.78
2018-12-30T20:09:27.310Z,5.79
2018-12-30T20:11:55.682Z,5.77
2018-12-30T20:14:24.063Z,5.78
2018-12-30T20:16:52.437Z,5.85
2018-12-30T20:19:20.802Z,5.86
2018-12-30T20:21:49.172Z,5.86
2018-12-30T20:24:17.546Z,5.88
2018-12-30T20:26:46.167Z,5.92
2018-12-30T20:29:14.527Z,5.93
2018-12-30T20:31:42.900Z,5.92
2018-12-30T20:34:11.280Z,5.95
2018-12-30T20:36:39.659Z,6.00
2018-12-30T20:39:08.031Z,6.01
2018-12-30T20:41:36.407Z,6.04
2018-12-30T20:44:04.790Z,6.12
2018-12-30T20:46:33.160Z,6.16
2018-12-30T20:49:01.532Z,6.19
2018-12-30T20:51:29.905Z,6.25
2018-12-30T20:53:58.293Z,6.34
2018-12-30T20:56:26.705Z,6.35
2018-12-30T20:58:55.065Z,6.14
2018-12-30T21:01:23.453Z,6.19
2018-12-30T21:03:51.837Z,6.21
2018-12-30T21:06:20.237Z,6.19
2018-12-30T21:08:48.592Z,6.24
2018-12-30T21:11:16.984Z,6.24
2018-12-30T21:13:45.342Z,6.17
2018-12-30T21:16:13.703Z,6.22
2018-12-30T21:18:42.077Z,6.27
2018-12-30T21:21:10.437Z,6.30
2018-12-30T21:23:39.441Z,6.24
2018-12-30T21:26:07.835Z,6.33
2018-12-30T21:28:36.220Z,6.27
2018-12-30T21:31:04.587Z,6.31
2018-12-30T21:33:32.969Z,6.37
2018-12-30T21:36:01.335Z,6.37
2018-12-30T21:38:29.714Z,6.34
2018-12-30T21:40:58.071Z,6.30
2018-12-30T21:43:26.431Z,6.38
2018-12-30T21:45:54.803Z,6.40
2018-12-30T21:48:23.175Z,6.49
2018-12-30T21:50:51.660Z,6.45
2018-12-30T21:53:20.034Z,6.51
2018-12-30T21:55:48.412Z,6.45
2018-12-30T21:58:16.794Z,6.49
2018-12-30T22:00:45.231Z,6.51
2018-12-30T22:03:13.599Z,6.55
2018-12-30T22:05:41.981Z,6.46
2018-12-30T22:08:10.348Z,6.46
2018-12-30T22:10:38.757Z,6.50
2018-12-30T22:13:07.123Z,6.58
2018-12-30T22:15:35.494Z,6.53
2018-12-30T22:18:03.856Z,6.45
2018-12-30T22:20:32.232Z,6.44
2018-12-30T22:23:00.627Z,6.45
2018-12-30T22:25:29.032Z,6.42
2018-12-30T22:27:57.427Z,6.37
2018-12-30T22:30:25.799Z,6.38
2018-12-30T22:32:54.172Z,6.43
2018-12-30T22:35:22.554Z,6.49
2018-12-30T22:37:50.946Z,6.49
2018-12-30T22:40:19.354Z,6.53
2018-12-30T22:42:47.733Z,6.60
2018-12-30T22:45:16.108Z,6.65
2018-12-30T22:47:44.493Z,6.66
2018-12-30T22:50:12.871Z,6.72
2018-12-30T22:52:41.256Z,6.69
2018-12-30T22:55:09.638Z,6.66
2018-12-30T22:57:37.987Z,6.64
2018-12-30T23:00:46.389Z,6.68
2018-12-30T23:03:14.758Z,6.69
2018-12-30T23:05:43.151Z,6.67
2018-12-30T23:08:11.532Z,6.74
2018-12-30T23:10:40.880Z,6.70
2018-12-30T23:13:09.247Z,6.69
2018-12-30T23:15:37.625Z,6.66
2018-12-30T23:18:05.993Z,6.68
2018-12-30T23:20:34.363Z,6.70
2018-12-30T23:23:02.762Z,6.71
2018-12-30T23:25:31.143Z,6.67
2018-12-30T23:27:59.502Z,6.68
2018-12-30T23:30:27.871Z,6.71
2018-12-30T23:32:56.236Z,6.74
2018-12-30T23:35:24.622Z,6.88
2018-12-30T23:37:52.993Z,6.74
2018-12-30T23:40:21.358Z,6.72
2018-12-30T23:42:49.758Z,6.66
2018-12-30T23:45:18.114Z,6.66
2018-12-30T23:47:46.501Z,6.65
2018-12-30T23:50:14.877Z,6.59
2018-12-30T23:52:43.227Z,6.54
2018-12-30T23:55:11.610Z,6.55
2018-12-30T23:57:39.992Z,6.54
